Rosenort Airport

CKJ2 · Manitoba, Canadá

METAR pasados CKJ2 · Rosenort Airport

A continuación puedes ver los METAR de los últimos días. Selecciona un año para ver los METAR más antiguos, desde el año 2007 en adelante.

21 de abril de 2024

Hora Código Tiempo Temp. Visibilidad Cielo nuboso Viento METAR/SPECI
05:00
V
-3 °C 15 mi - 280° 280° 8 kt METAR CYWG 211000Z 28008KT 15SM FEW180 M03/M05 A3008 RMK AC1 SLP200
04:00
V
-2 °C 15 mi - 270° 270° 5 kt METAR CYWG 210900Z 27005KT 15SM SKC M02/M05 A3008 RMK SLP200
03:00
V
-1 °C 15 mi - 280° 280° 8 kt METAR CYWG 210800Z 28008KT 15SM SKC M01/M04 A3008 RMK SLP199
02:00
V
0 °C 15 mi - 280° 280° 9 kt METAR CYWG 210700Z 28009KT 15SM SKC 00/M04 A3008 RMK SLP200
01:00
V
1 °C 15 mi - 260° 260° 10 kt METAR CYWG 210600Z 26010KT 15SM SKC 01/M04 A3008 RMK SLP200
00:00
V
2 °C 15 mi - 250° 250° 9 kt METAR CYWG 210500Z 25009KT 15SM SKC 02/M05 A3009 RMK SLP204

20 de abril de 2024

Hora Código Tiempo Temp. Visibilidad Cielo nuboso Viento METAR/SPECI
23:00
V
1 °C 15 mi - 270° 270° 7 kt METAR CYWG 210400Z 27007KT 15SM SKC 01/M05 A3011 RMK SLP208
22:00
V
0 °C 15 mi - 280° 280° 9 kt METAR CYWG 210300Z 28009KT 15SM SKC 00/M04 A3011 RMK SLP210
21:00
V
2 °C 15 mi - 300° 300° 8 kt METAR CYWG 210200Z 30008KT 15SM FEW250 02/M03 A3011 RMK CI1 CI TR SLP212
20:52
V
2 °C 15 mi - 300° 300° 8 kt METAR CYWG 210152Z 30008KT 15SM FEW250 02/M03 A3011 RMK CI1 CI TR SLP211
20:00
V
7 °C 15 mi - 300° 300° 10 kt METAR CYWG 210100Z 30010KT 15SM FEW040 07/M02 A3011 RMK SC1 SC TR SLP210
19:00
V
9 °C 15 mi - 320° 320° 17 - 22 kt METAR CYWG 210000Z 32017G22KT 15SM FEW040 FEW250 09/M03 A3012 RMK SC1CI1 SC TR CI TR SLP215
18:00
V
10 °C 15 mi - 330° 330° 22 kt METAR CYWG 202300Z 33022KT 15SM FEW040 FEW250 10/M05 A3013 RMK SC1CI1 SC TR SLP216
17:00
V
10 °C 15 mi - 320° 320° 21 - 29 kt METAR CYWG 202200Z 32021G29KT 15SM FEW040 FEW140 SCT250 10/M04 A3013 RMK SC1AC1CI3 AC TR SLP218
16:00
V
10 °C 15 mi - 310° 310° 20 - 26 kt METAR CYWG 202100Z 31020G26KT 15SM FEW040 FEW250 10/M04 A3014 RMK SC1CI2 SC TR SLP220
15:00
V
10 °C 15 mi 25.000 ft 300° 300° 18 - 23 kt METAR CYWG 202000Z CCA 30018G23KT 15SM FEW035 BKN250 10/M03 A3015 RMK CF1CI6 CF TR SLP224
14:00
V
8 °C 15 mi 25.000 ft 270° 270° 19 - 24 kt METAR CYWG 201900Z 27019G24KT 15SM FEW032 BKN250 08/M02 A3018 RMK CF1CI7 CF TR SLP232
13:00
V
6 °C 15 mi 25.000 ft 280° 280° 13 - 21 kt METAR CYWG 201800Z 28013G21KT 15SM FEW030 BKN250 06/M02 A3020 RMK CF1CI7 CF TR SLP240
12:00
V
5 °C 15 mi 25.000 ft 280° 280° 14 - 20 kt METAR CYWG 201700Z 28014G20KT 15SM BKN250 05/M02 A3021 RMK CI6 SLP245
11:00
V
3 °C 15 mi - 280° 280° 14 kt METAR CYWG 201600Z 28014KT 15SM FEW025 FEW250 03/M03 A3022 RMK CF1CI2 CF TR SLP249
10:00
V
2 °C 15 mi - 280° 280° 12 kt METAR CYWG 201500Z 28012KT 15SM FEW250 02/M03 A3024 RMK CC1 SLP254
09:00
V
0 °C 15 mi - 280° 280° 12 kt METAR CYWG 201400Z 28012KT 15SM FEW250 00/M04 A3024 RMK CI1 CI TR SLP256
08:00
V
-2 °C 15 mi - 270° 270° 12 kt METAR CYWG 201300Z 27012KT 15SM FEW250 M02/M06 A3025 RMK CI1 CI TR SLP259
07:00
V
-5 °C 15 mi - 290° 290° 9 kt METAR CYWG 201200Z 29009KT 15SM FEW250 M05/M07 A3025 RMK CI1 CI TR SLP260=
06:00
V
-6 °C 15 mi - 290° 290° 10 kt METAR CYWG 201100Z 29010KT 15SM FEW250 M06/M07 A3024 RMK CI1 CI TR SLP258=
05:00
V
-5 °C 15 mi - 300° 300° 10 kt METAR CYWG 201000Z 30010KT 15SM SKC M05/M07 A3025 RMK SLP260=
04:00
V
-5 °C 15 mi - 300° 300° 11 kt METAR CYWG 200900Z 30011KT 15SM SKC M05/M07 A3025 RMK SLP261=
03:00
V
-4 °C 15 mi - 320° 320° 9 kt METAR CYWG 200800Z 32009KT 15SM SKC M04/M07 A3024 RMK SLP258=
02:00
V
-3 °C 15 mi - 320° 320° 13 kt METAR CYWG 200700Z 32013KT 15SM FEW250 M03/M07 A3023 RMK CI1 CI TR SLP254=
01:00
V
-3 °C 15 mi - 310° 310° 13 kt METAR CYWG 200600Z 31013KT 15SM FEW042 FEW250 M03/M05 A3023 RMK SC2CI1 CI TR SLP254=
00:00
V
-3 °C 15 mi - 310° 310° 8 kt METAR CYWG 200500Z 31008KT 15SM SCT042 M03/M05 A3022 RMK SC4 SLP251=

19 de abril de 2024

Hora Código Tiempo Temp. Visibilidad Cielo nuboso Viento METAR/SPECI
23:00
V
-2 °C 15 mi 3.900 ft 330° 330° 11 kt METAR CYWG 200400Z 33011KT 15SM OVC039 M02/M05 A3021 RMK SC8 SLP246=
22:16
V
-1 °C 15 mi 3.300 ft 340° 340° 15 - 22 kt METAR CYWG 200316Z 34015G22KT 15SM OVC033 M01/M05 A3020 RMK SC8 SLP242
22:00
M
-1 °C 15 mi 3.000 ft 340° 340° 17 - 22 kt METAR CYWG 200300Z 34017G22KT 15SM SN FEW017 OVC030 M01/M05 A3019 RMK SC1SC8 SLP239=
21:00
V
-2 °C 10 mi 3.200 ft 340° 340° 15 kt METAR CYWG 200200Z 34015KT 10SM SN FEW017 OVC032 M02/M03 A3016 RMK SC2SC6 SLP231=
20:00
V
-1 °C 10 mi 3.100 ft 350° 350° 15 - 21 kt METAR CYWG 200100Z 35015G21KT 10SM SN FEW021 BKN031 BKN250 M01/M04 A3013 RMK SC1SC7CI1 SC TR CI TR SLP220=
19:36
V
-1 °C 10 mi 3.600 ft 360° 360° 13 - 21 kt METAR CYWG 200036Z 36013G21KT 10SM -SN OVC036 M01/M05 A3013 RMK SC8 SLP218
19:18
M
-1 °C 15 mi 2.600 ft 350° 350° 18 - 24 kt METAR CYWG 200018Z 35018G24KT 15SM OVC026 M01/M05 A3012 RMK SC8 SLP216
19:00
M
-2 °C 5 mi 1.900 ft 360° 360° 15 kt METAR CYWG 200000Z 36015KT 5SM SN BR BKN019 OVC028 M02/M05 A3012 RMK SN1SC6SC1 SLP215=
18:00
V
-1 °C 5 mi 3.100 ft 350° 350° 18 - 25 kt METAR CYWG 192300Z 35018G25KT 5SM SN BR SCT019 OVC031 M01/M05 A3010 RMK SN1SC2SC5 SLP210=
17:00
M
-2 °C 5 mi 2.700 ft 340° 340° 21 - 28 kt METAR CYWG 192200Z 34021G28KT 5SM SN BR FEW019 OVC027 M02/M05 A3008 RMK SN1SC1SC7 SLP204=
16:00
M
-1 °C 12 mi 1.900 ft 330° 330° 19 - 28 kt METAR CYWG 192100Z 33019G28KT 12SM BKN019 OVC040 M01/M05 A3006 RMK SC7SC1 SLP196=
15:00
M
-1 °C 8 mi 1.800 ft 320° 320° 21 - 27 kt METAR CYWG 192000Z 32021G27KT 8SM BKN018 OVC028 M01/M04 A3005 RMK SC6SC2 SLP193=
14:00
M
-1 °C 10 mi 2.300 ft 320° 320° 18 - 24 kt METAR CYWG 191900Z 32018G24KT 10SM BKN023 M01/M04 A3004 RMK SC8 SLP189=
13:00
M
-2 °C 15 mi 2.600 ft 320° 320° 20 - 25 kt METAR CYWG 191800Z 32020G25KT 15SM OVC026 M02/M06 A3002 RMK SC8 SLP183=
12:00
M
-2 °C 10 mi 2.300 ft 330° 330° 20 - 25 kt METAR CYWG 191700Z 33020G25KT 10SM OVC023 M02/M05 A3001 RMK SC8 SLP178=
11:00
M
-2 °C 8 mi 1.800 ft 330° 330° 21 kt METAR CYWG 191600Z 33021KT 8SM BKN018 OVC026 M02/M05 A2999 RMK SC7SC1 SLP171=
10:00
M
-2 °C 15 mi 1.800 ft 320° 320° 19 - 24 kt METAR CYWG 191500Z 32019G24KT 15SM BKN018 OVC024 M02/M05 A2997 RMK SC7SC1 SLP164=
09:49
M
-2 °C 15 mi 1.700 ft 330° 330° 22 kt METAR SPECI CYWG 191449Z 33022KT 15SM BKN017 OVC021 M02/M05 A2996 RMK SC7SC1 SLP163=
09:00
M
-2 °C 12 mi 1.700 ft 320° 320° 19 kt METAR CYWG 191400Z 32019KT 12SM SN BKN017 OVC021 M02/M04 A2995 RMK SC7SC1 SLP157=
08:16
M
-2 °C 5 mi 1.700 ft 320° 320° 18 kt METAR SPECI CYWG 191316Z 32018KT 5SM SN BR OVC017 M02/M04 A2994 RMK SC8 SLP154=
08:00
I
-2 °C 2½ mi 1.300 ft 320° 320° 17 - 24 kt METAR CYWG 191300Z 32017G24KT 21/2SM SN BR BKN013 OVC021 M02/M04 A2994 RMK SC7SC1 VIS VRB 13/4-4 SLP153=
07:43
I
-2 °C 2 mi 1.300 ft 320° 320° 19 kt METAR SPECI CYWG 191243Z 32019KT 2SM SN BR OVC013 M02/M03 A2993 RMK SC8 VIS VRB 11/2-3 SLP152=
07:25
M
-2 °C 3 mi 2.800 ft 310° 310° 17 kt METAR SPECI CYWG 191225Z 31017KT 3SM SN BR SCT013 BKN028 OVC062 M02/M03 A2992 RMK SC3SC3SC2 SLP149=
07:07
I
-2 °C 2 mi 1.400 ft 310° 310° 14 - 21 kt METAR SPECI CYWG 191207Z 31014G21KT 2SM SN BR OVC014 M02/M03 A2992 RMK SC8 SLP148=
07:00
M
-2 °C 3 mi 1.400 ft 310° 310° 16 kt METAR CYWG 191200Z 31016KT 3SM SN BR OVC014 M02/M03 A2992 RMK SC8 SLP148=
06:37
M
-2 °C 4 mi 1.100 ft 310° 310° 16 kt METAR SPECI CYWG 191137Z 31016KT 4SM SN BR OVC011 M02/M03 A2991 RMK SC8 SLP145=
06:29
I
-2 °C 2½ mi 900 ft 310° 310° 14 kt METAR SPECI CYWG 191129Z 31014KT 21/2SM SN BR OVC009 M02/M03 A2991 RMK SC8 SLP145=
06:00
M
-2 °C 15 mi 2.300 ft 300° 300° 13 kt METAR CYWG 191100Z 30013KT 15SM SN SCT014 OVC023 M02/M03 A2991 RMK SC3SC5 SLP142=
05:00
M
-2 °C 15 mi 2.300 ft 300° 300° 13 kt METAR CYWG 191000Z 30013KT 15SM SCT013 OVC023 M02/M04 A2991 RMK SC4SC4 SLP142=
04:00
M
-2 °C 15 mi 1.600 ft 290° 290° 13 kt METAR CYWG 190900Z 29013KT 15SM OVC016 M02/M04 A2991 RMK SC8 SLP143=
03:28
M
-2 °C 15 mi 1.500 ft 300° 300° 16 kt METAR SPECI CYWG 190828Z 30016KT 15SM SN OVC015 M02/M04 A2991 RMK SC8 SLP144=
03:00
M
-2 °C 15 mi 1.400 ft 290° 290° 15 kt METAR CYWG 190800Z 29015KT 15SM SN OVC014 M02/M04 A2992 RMK SC8 SLP145=
02:43
M
-2 °C 15 mi 1.300 ft 290° 290° 14 kt METAR SPECI CYWG 190743Z 29014KT 15SM SN OVC013 M02/M04 A2992 RMK SC8 SLP145=
02:00
M
-3 °C 12 mi 1.700 ft 290° 290° 13 kt METAR CYWG 190700Z 29013KT 12SM SN OVC017 M03/M04 A2992 RMK SC8 SLP146=
01:00
M
-2 °C 12 mi 1.500 ft 300° 300° 12 - 17 kt METAR CYWG 190600Z 30012G17KT 12SM SN BKN015 OVC120 M02/M04 A2992 RMK SC6AC2 SLP148=
Cambiar esta información